Time;durP1;ratioP1;P1;durP2;ratioP2;P2;SDS_P1;SDS_P2;PMS_P1;PMS_P2;Temp;Humidity;BMP_temperature;BMP_pressure;BME280_temperature;BME280_humidity;BME280_pressure;Samples;Min_cycle;Max_cycle;Signal;HPM_P1;HPM_P2
2021/01/30 00:01:00;;;;;;;34.83;31.52;;;27.10;79.40;;;;;;5010736;28;20749;-51
2021/01/30 00:03:31;;;;;;;34.72;31.30;;;27.10;79.50;;;;;;5011122;28;20242;-52
2021/01/30 00:06:03;;;;;;;33.20;30.08;;;27.10;79.40;;;;;;5011451;28;20234;-52
2021/01/30 00:08:33;;;;;;;36.25;32.50;;;27.10;79.50;;;;;;5011263;28;20715;-50
2021/01/30 00:11:04;;;;;;;38.08;34.10;;;27.10;79.40;;;;;;5019148;28;20268;-54
2021/01/30 00:13:35;;;;;;;38.70;34.90;;;27.20;79.50;;;;;;5019096;28;20231;-49
2021/01/30 00:16:06;;;;;;;39.50;35.35;;;27.20;79.40;;;;;;5026899;28;20218;-51
2021/01/30 00:18:37;;;;;;;35.58;32.17;;;27.20;79.60;;;;;;5030212;28;20230;-54
2021/01/30 00:21:11;;;;;;;38.55;34.55;;;27.20;79.60;;;;;;5028435;28;20849;-53
2021/01/30 00:23:41;;;;;;;35.88;32.22;;;27.20;79.70;;;;;;5029316;28;20238;-51
2021/01/30 00:26:12;;;;;;;33.05;29.88;;;27.20;79.30;;;;;;5025530;28;20710;-52
2021/01/30 00:28:42;;;;;;;31.30;28.25;;;27.30;79.10;;;;;;5029414;28;20242;-53
2021/01/30 00:31:28;;;;;;;28.60;25.60;;;27.20;78.70;;;;;;5027244;28;20583;-51
2021/01/30 00:33:58;;;;;;;26.60;24.10;;;27.30;78.70;;;;;;5027805;28;20725;-51
2021/01/30 00:36:30;;;;;;;26.52;23.73;;;27.30;77.10;;;;;;5028848;28;20288;-53
2021/01/30 00:39:01;;;;;;;26.48;23.67;;;27.30;76.20;;;;;;5028506;28;20234;-50
2021/01/30 00:41:32;;;;;;;25.50;22.85;;;27.30;75.90;;;;;;5028036;28;20227;-53
2021/01/30 00:44:02;;;;;;;25.60;23.00;;;27.40;75.50;;;;;;5029440;28;20264;-50
2021/01/30 00:46:34;;;;;;;25.38;22.77;;;27.40;74.80;;;;;;5028764;28;20724;-49
2021/01/30 00:49:04;;;;;;;23.83;21.40;;;27.40;74.20;;;;;;5029845;28;20234;-50
2021/01/30 00:51:36;;;;;;;23.83;21.42;;;27.50;73.90;;;;;;5029527;28;20230;-49
2021/01/30 00:54:07;;;;;;;23.00;20.67;;;27.50;73.40;;;;;;5029634;28;20231;-49
2021/01/30 00:56:38;;;;;;;23.55;21.15;;;27.60;73.20;;;;;;5029906;28;20226;-50
2021/01/30 00:59:09;;;;;;;23.05;20.67;;;27.60;72.70;;;;;;5030042;28;20238;-50
2021/01/30 01:01:39;;;;;;;25.10;22.60;;;27.60;72.30;;;;;;5029692;28;20308;-49
2021/01/30 01:04:10;;;;;;;24.02;21.48;;;27.70;72.00;;;;;;5029019;28;20320;-52
2021/01/30 01:06:42;;;;;;;22.02;19.88;;;27.70;71.70;;;;;;5029051;28;20246;-55
2021/01/30 01:09:13;;;;;;;23.33;20.98;;;27.70;71.50;;;;;;5029420;28;20234;-53
2021/01/30 01:11:44;;;;;;;24.73;20.92;;;27.70;71.60;;;;;;5029128;28;20595;-50
2021/01/30 01:14:15;;;;;;;26.17;21.65;;;27.80;71.40;;;;;;4967270;28;20240;-49
2021/01/30 01:16:46;;;;;;;21.55;19.48;;;27.80;70.90;;;;;;4953549;28;20252;-52
2021/01/30 01:19:16;;;;;;;21.67;19.52;;;27.80;70.00;;;;;;4948312;28;20252;-54
2021/01/30 01:21:52;;;;;;;20.35;18.35;;;27.90;69.80;;;;;;4947937;29;20237;-51
2021/01/30 01:24:23;;;;;;;20.90;18.83;;;27.90;69.30;;;;;;4960891;28;20243;-50
2021/01/30 01:26:54;;;;;;;20.05;18.00;;;28.00;69.20;;;;;;4948804;28;20248;-49
2021/01/30 01:29:24;;;;;;;20.10;18.15;;;28.00;69.10;;;;;;4948917;28;20662;-52
2021/01/30 01:31:55;;;;;;;22.10;20.00;;;28.00;68.80;;;;;;4948423;29;20255;-50
2021/01/30 01:34:28;;;;;;;21.45;19.25;;;28.10;68.30;;;;;;4948246;29;20241;-52
2021/01/30 01:37:00;;;;;;;23.35;19.85;;;28.20;68.10;;;;;;4948433;29;20245;-52
2021/01/30 01:39:31;;;;;;;23.05;19.40;;;28.20;68.20;;;;;;4997123;28;20278;-50
2021/01/30 01:42:09;;;;;;;20.83;18.73;;;28.30;67.70;;;;;;5009273;28;20234;-53
2021/01/30 01:44:40;;;;;;;22.25;19.25;;;28.40;67.00;;;;;;5008959;28;20704;-52
2021/01/30 01:47:14;;;;;;;23.98;19.30;;;28.40;66.90;;;;;;5009179;28;20239;-52
2021/01/30 01:49:44;;;;;;;22.15;19.85;;;28.50;66.60;;;;;;5009074;28;20245;-51
2021/01/30 01:52:25;;;;;;;20.55;18.58;;;28.50;65.70;;;;;;5009055;28;20314;-49
2021/01/30 01:54:57;;;;;;;22.00;19.80;;;28.50;64.90;;;;;;5008405;28;20239;-52
2021/01/30 01:57:29;;;;;;;23.65;20.02;;;28.60;64.90;;;;;;5009006;28;20759;-53
2021/01/30 01:59:59;;;;;;;21.48;19.27;;;28.60;64.80;;;;;;5008953;28;20782;-53
2021/01/30 02:02:32;;;;;;;21.85;19.45;;;28.70;64.50;;;;;;5009069;28;20286;-49
2021/01/30 02:05:06;;;;;;;20.48;18.38;;;28.70;63.70;;;;;;5020978;28;20246;-50
2021/01/30 02:07:39;;;;;;;22.88;19.65;;;28.80;64.20;;;;;;5028709;28;20607;-50
2021/01/30 02:10:10;;;;;;;21.15;19.08;;;28.90;63.50;;;;;;4985986;28;20241;-51
2021/01/30 02:12:41;;;;;;;21.02;18.83;;;28.90;63.50;;;;;;4986773;28;20240;-51
2021/01/30 02:15:13;;;;;;;20.67;18.27;;;29.00;63.30;;;;;;4976018;28;20241;-53
2021/01/30 02:17:47;;;;;;;21.40;17.77;;;29.10;63.30;;;;;;4965041;28;20310;-49
2021/01/30 02:20:53;;;;;;;19.23;17.05;;;29.10;62.80;;;;;;4964964;28;20707;-51
2021/01/30 02:24:14;;;;;;;20.10;18.05;;;29.20;62.30;;;;;;4964121;28;20676;-52
2021/01/30 02:27:10;;;;;;;21.20;18.60;;;29.40;62.20;;;;;;4887830;29;20275;-52
2021/01/30 02:30:05;;;;;;;19.98;17.95;;;29.40;59.90;;;;;;4850464;29;20248;-53
2021/01/30 02:32:52;;;;;;;21.27;19.00;;;29.50;60.50;;;;;;4914225;29;20292;-52
2021/01/30 02:35:31;;;;;;;18.77;16.95;;;29.50;60.60;;;;;;4925198;29;20237;-52
2021/01/30 02:38:05;;;;;;;21.10;18.52;;;29.60;60.40;;;;;;4926479;29;20730;-53
2021/01/30 02:40:37;;;;;;;22.40;18.42;;;29.70;60.50;;;;;;4901249;29;20308;-53
2021/01/30 02:43:08;;;;;;;21.17;18.63;;;29.70;60.30;;;;;;4930204;29;20242;-51
2021/01/30 02:45:44;;;;;;;20.67;18.55;;;29.70;59.70;;;;;;4911466;29;20786;-55
2021/01/30 02:48:16;;;;;;;21.70;19.50;;;29.80;59.60;;;;;;4937591;28;20388;-51
2021/01/30 02:50:49;;;;;;;22.73;17.77;;;29.80;59.30;;;;;;4892537;29;20730;-51
2021/01/30 02:53:21;;;;;;;23.77;20.08;;;29.90;59.90;;;;;;4836928;29;20240;-50
2021/01/30 02:55:53;;;;;;;20.35;18.42;;;30.00;59.00;;;;;;4836890;29;20785;-54
2021/01/30 02:58:28;;;;;;;22.52;20.17;;;30.00;59.40;;;;;;4800298;29;20345;-50
2021/01/30 03:00:59;;;;;;;24.02;18.35;;;30.10;58.90;;;;;;4800154;29;20291;-52
2021/01/30 03:03:30;;;;;;;20.38;18.33;;;30.10;59.30;;;;;;4799671;29;20602;-54
2021/01/30 03:06:03;;;;;;;19.75;17.65;;;30.20;59.10;;;;;;4800320;29;20323;-52
2021/01/30 03:08:36;;;;;;;21.48;19.23;;;30.20;58.90;;;;;;4781668;29;20255;-54
2021/01/30 03:11:09;;;;;;;20.95;18.42;;;30.30;58.70;;;;;;4807717;29;20305;-50
2021/01/30 03:13:42;;;;;;;23.52;19.67;;;30.40;58.60;;;;;;4836610;29;20721;-50
2021/01/30 03:16:14;;;;;;;21.75;18.98;;;30.50;58.10;;;;;;4836500;29;20249;-53
2021/01/30 03:18:49;;;;;;;21.38;19.20;;;30.50;57.60;;;;;;4836254;29;20396;-52
2021/01/30 03:21:20;;;;;;;20.50;18.20;;;30.60;57.00;;;;;;4852646;29;20235;-52
2021/01/30 03:23:52;;;;;;;20.17;17.95;;;30.60;56.90;;;;;;4899453;29;20262;-53
2021/01/30 03:26:23;;;;;;;21.05;18.88;;;30.70;57.00;;;;;;4929969;29;20253;-54
2021/01/30 03:28:55;;;;;;;21.42;19.25;;;30.70;56.40;;;;;;4897199;29;20706;-53
2021/01/30 03:31:26;;;;;;;20.20;18.10;;;30.70;56.70;;;;;;4897503;29;20238;-53
2021/01/30 03:33:56;;;;;;;20.33;17.50;;;30.80;56.40;;;;;;4929023;29;20242;-49
2021/01/30 03:36:27;;;;;;;21.30;19.13;;;30.80;56.60;;;;;;4929322;29;20321;-50
2021/01/30 03:38:59;;;;;;;19.30;17.42;;;30.80;56.20;;;;;;4928495;29;20317;-51
2021/01/30 03:41:29;;;;;;;19.23;17.27;;;30.90;56.70;;;;;;4929427;29;20790;-49
2021/01/30 03:44:00;;;;;;;19.05;17.27;;;31.00;57.60;;;;;;4929491;29;20238;-53
2021/01/30 03:46:30;;;;;;;21.75;19.58;;;31.00;56.80;;;;;;4929521;29;20482;-51
2021/01/30 03:49:01;;;;;;;20.60;18.52;;;31.10;56.30;;;;;;4929335;29;20254;-49
2021/01/30 03:51:31;;;;;;;21.10;19.00;;;31.20;56.20;;;;;;4928668;29;20700;-49
2021/01/30 03:54:02;;;;;;;21.52;19.23;;;31.20;55.80;;;;;;4921161;29;20325;-52
2021/01/30 03:56:33;;;;;;;20.55;18.55;;;31.30;55.00;;;;;;4928257;29;20242;-49
2021/01/30 03:59:04;;;;;;;20.73;18.60;;;31.40;55.20;;;;;;4934280;28;20237;-52
2021/01/30 04:01:35;;;;;;;21.55;19.30;;;31.40;54.70;;;;;;4973184;28;20235;-51
2021/01/30 04:04:08;;;;;;;20.55;18.35;;;31.40;54.50;;;;;;5020675;28;20237;-51
2021/01/30 04:06:39;;;;;;;19.38;17.52;;;31.50;54.80;;;;;;5027838;28;20235;-51
2021/01/30 04:09:11;;;;;;;19.48;17.58;;;31.50;54.80;;;;;;5027491;28;20258;-54
2021/01/30 04:11:41;;;;;;;20.55;18.50;;;31.50;54.70;;;;;;5027974;28;20242;-49
2021/01/30 04:14:12;;;;;;;20.80;18.60;;;31.60;54.40;;;;;;5028378;28;20288;-53
2021/01/30 04:16:42;;;;;;;24.85;18.55;;;31.60;54.60;;;;;;5028862;28;20257;-51
2021/01/30 04:19:13;;;;;;;21.42;18.75;;;31.60;54.00;;;;;;5028462;28;20241;-52
2021/01/30 04:21:43;;;;;;;19.75;17.85;;;31.70;53.70;;;;;;5028281;28;20708;-54
2021/01/30 04:24:15;;;;;;;20.85;18.70;;;31.70;54.10;;;;;;5028433;28;20666;-55
2021/01/30 04:26:48;;;;;;;20.13;18.23;;;31.80;53.70;;;;;;5028072;28;20238;-52
2021/01/30 04:29:18;;;;;;;19.75;17.88;;;31.80;53.90;;;;;;5028180;28;20308;-53
2021/01/30 04:31:53;;;;;;;21.13;19.02;;;31.90;53.90;;;;;;5028140;28;20233;-53
2021/01/30 04:34:24;;;;;;;19.05;17.17;;;31.90;53.60;;;;;;5028094;28;20238;-55
2021/01/30 04:36:55;;;;;;;17.85;16.10;;;32.00;54.10;;;;;;5028097;28;20317;-54
2021/01/30 04:39:27;;;;;;;20.25;18.23;;;32.00;54.20;;;;;;5028132;28;20235;-50
2021/01/30 04:42:01;;;;;;;23.90;18.90;;;32.10;53.80;;;;;;5027759;28;20345;-54
2021/01/30 04:44:37;;;;;;;19.42;17.60;;;32.20;53.50;;;;;;5027871;28;20321;-49
2021/01/30 04:47:16;;;;;;;19.38;17.40;;;32.20;53.40;;;;;;5028030;28;20242;-54
2021/01/30 04:49:51;;;;;;;19.27;17.38;;;32.30;53.30;;;;;;5027554;28;20709;-51
2021/01/30 04:52:36;;;;;;;18.50;16.67;;;32.40;53.60;;;;;;5027015;28;20245;-51
2021/01/30 04:55:16;;;;;;;19.40;17.38;;;32.40;53.60;;;;;;4985247;28;20298;-52
2021/01/30 04:57:51;;;;;;;21.05;19.05;;;32.50;52.90;;;;;;4889661;29;20259;-52
2021/01/30 05:00:46;;;;;;;20.73;18.80;;;32.60;52.50;;;;;;4890250;29;20238;-54
2021/01/30 05:04:00;;;;;;;20.17;18.17;;;32.70;52.20;;;;;;4888748;29;20317;-50
2021/01/30 05:06:52;;;;;;;20.83;18.73;;;32.70;52.30;;;;;;4882644;29;20307;-50
2021/01/30 05:09:28;;;;;;;22.85;20.05;;;32.80;52.00;;;;;;4889158;29;20322;-50
2021/01/30 05:12:04;;;;;;;22.23;19.90;;;32.80;51.40;;;;;;4888840;29;20610;-49
2021/01/30 05:14:36;;;;;;;18.95;17.17;;;32.90;51.40;;;;;;4889018;29;20250;-51
2021/01/30 05:17:10;;;;;;;21.13;19.00;;;32.90;51.60;;;;;;4889605;29;20715;-51
2021/01/30 05:19:44;;;;;;;19.67;17.77;;;32.90;51.10;;;;;;4852432;29;20263;-52
2021/01/30 05:22:15;;;;;;;18.92;17.05;;;32.90;51.00;;;;;;4888063;29;20244;-54
2021/01/30 05:24:46;;;;;;;21.15;19.33;;;32.90;51.30;;;;;;4927330;29;20388;-54
2021/01/30 05:27:30;;;;;;;22.63;20.52;;;33.00;52.00;;;;;;4965413;28;20284;-51
2021/01/30 05:30:05;;;;;;;20.80;18.70;;;33.00;50.50;;;;;;4965714;28;20283;-53
2021/01/30 05:32:42;;;;;;;20.73;18.83;;;33.00;50.80;;;;;;4927897;29;20233;-53
2021/01/30 05:35:14;;;;;;;20.88;18.77;;;33.10;51.00;;;;;;4927345;29;20651;-52
2021/01/30 05:37:49;;;;;;;21.33;19.02;;;33.10;51.40;;;;;;4927090;29;20329;-49
2021/01/30 05:40:32;;;;;;;24.05;21.70;;;33.10;51.10;;;;;;4927036;29;21246;-49
2021/01/30 05:43:12;;;;;;;23.83;21.52;;;33.20;50.90;;;;;;4926598;29;20627;-53
2021/01/30 05:45:44;;;;;;;20.48;18.38;;;33.20;50.20;;;;;;4926743;29;20337;-49
2021/01/30 05:48:15;;;;;;;20.85;18.80;;;33.30;51.00;;;;;;4927337;29;20230;-51
2021/01/30 05:50:52;;;;;;;21.35;19.23;;;33.30;51.10;;;;;;4946709;28;20240;-50
2021/01/30 05:53:23;;;;;;;21.45;19.42;;;33.30;51.00;;;;;;4946190;28;20704;-52
2021/01/30 05:55:53;;;;;;;22.35;20.17;;;33.40;50.90;;;;;;4945860;28;20264;-51
2021/01/30 05:58:26;;;;;;;21.30;19.25;;;33.50;50.40;;;;;;4941168;28;20773;-50
2021/01/30 06:01:25;;;;;;;22.73;20.33;;;33.50;50.30;;;;;;4946102;28;20247;-54
2021/01/30 06:03:59;;;;;;;22.45;20.35;;;33.50;48.90;;;;;;4944569;28;20249;-49
2021/01/30 06:06:32;;;;;;;22.00;19.90;;;33.50;50.20;;;;;;4945662;28;20848;-50
2021/01/30 06:09:05;;;;;;;20.27;18.27;;;33.60;50.30;;;;;;4945682;28;20237;-50
2021/01/30 06:11:44;;;;;;;21.85;19.45;;;33.70;50.50;;;;;;4945244;28;20339;-49
2021/01/30 06:14:30;;;;;;;22.08;20.08;;;33.70;50.50;;;;;;4944429;28;20237;-53
2021/01/30 06:17:01;;;;;;;23.23;21.10;;;33.80;50.60;;;;;;4945359;28;20333;-51
2021/01/30 06:19:33;;;;;;;23.00;20.90;;;33.80;50.20;;;;;;4945678;28;20233;-53
2021/01/30 06:22:15;;;;;;;24.15;21.75;;;33.90;50.00;;;;;;4945625;28;20237;-53
2021/01/30 06:24:46;;;;;;;27.77;25.05;;;34.00;49.90;;;;;;4945535;28;20757;-49
2021/01/30 06:27:29;;;;;;;29.90;24.33;;;34.00;49.90;;;;;;4945460;28;20245;-51
2021/01/30 06:30:03;;;;;;;27.33;24.80;;;34.10;49.60;;;;;;4929675;29;20251;-54
2021/01/30 06:32:39;;;;;;;28.65;25.77;;;34.20;49.40;;;;;;4944918;29;20297;-52
2021/01/30 06:35:22;;;;;;;26.73;24.13;;;34.20;48.90;;;;;;4945111;29;20236;-51
2021/01/30 06:37:53;;;;;;;26.55;24.15;;;34.30;49.20;;;;;;4906569;29;20246;-50
2021/01/30 06:40:25;;;;;;;30.55;27.52;;;34.30;49.20;;;;;;4907010;29;20346;-53
2021/01/30 06:42:56;;;;;;;29.45;26.63;;;34.30;49.00;;;;;;4888205;29;20235;-50
2021/01/30 06:45:30;;;;;;;27.45;24.80;;;34.30;48.90;;;;;;4869545;29;20322;-50
2021/01/30 06:48:01;;;;;;;29.95;27.05;;;34.40;49.20;;;;;;4869861;29;20545;-54
2021/01/30 06:50:36;;;;;;;29.48;26.67;;;34.40;49.00;;;;;;4832525;29;20253;-54
2021/01/30 06:53:17;;;;;;;27.33;24.60;;;34.40;49.10;;;;;;4832683;29;20233;-53
2021/01/30 06:55:48;;;;;;;30.55;27.33;;;34.40;49.50;;;;;;4832647;29;20727;-52
2021/01/30 06:58:27;;;;;;;31.63;28.63;;;34.50;49.00;;;;;;4833221;29;20259;-51
2021/01/30 07:01:11;;;;;;;30.05;27.15;;;34.50;48.50;;;;;;4832587;29;20245;-53
2021/01/30 07:04:09;;;;;;;28.90;26.08;;;34.50;48.60;;;;;;4851488;29;20251;-49
2021/01/30 07:06:45;;;;;;;30.38;27.58;;;34.50;48.50;;;;;;4851649;29;20242;-51
2021/01/30 07:09:39;;;;;;;27.20;24.58;;;34.60;48.50;;;;;;4852772;29;20244;-52
2021/01/30 07:12:11;;;;;;;30.33;27.58;;;34.60;48.80;;;;;;4834368;29;20245;-50
2021/01/30 07:15:01;;;;;;;29.58;26.67;;;34.60;48.50;;;;;;4879719;29;20703;-52
2021/01/30 07:17:51;;;;;;;28.77;25.75;;;34.70;48.30;;;;;;4927758;29;20289;-52
2021/01/30 07:20:35;;;;;;;29.33;26.63;;;34.70;48.30;;;;;;4928532;28;20278;-49
2021/01/30 07:23:08;;;;;;;30.95;27.92;;;34.80;48.40;;;;;;4985708;28;20254;-52
2021/01/30 07:25:41;;;;;;;28.08;25.65;;;34.80;47.90;;;;;;4929215;29;20234;-54
2021/01/30 07:28:20;;;;;;;29.05;26.55;;;34.80;47.80;;;;;;4932524;29;20246;-51
2021/01/30 07:30:53;;;;;;;30.42;27.55;;;34.90;47.70;;;;;;4931889;29;20375;-53
2021/01/30 07:33:27;;;;;;;28.00;25.35;;;34.80;47.50;;;;;;4931687;29;20238;-52
2021/01/30 07:36:02;;;;;;;29.00;26.40;;;34.90;47.90;;;;;;4935470;29;20248;-54
2021/01/30 07:38:36;;;;;;;30.58;27.67;;;34.90;47.80;;;;;;4951081;29;20255;-52
2021/01/30 07:41:10;;;;;;;33.05;29.80;;;34.90;47.70;;;;;;4950762;29;20359;-53
2021/01/30 07:43:43;;;;;;;31.15;28.35;;;35.00;47.10;;;;;;4893778;29;20239;-52
2021/01/30 07:46:15;;;;;;;28.85;25.95;;;35.00;46.80;;;;;;4906100;29;20723;-54
2021/01/30 07:48:51;;;;;;;30.52;27.67;;;35.00;46.90;;;;;;4911680;29;20242;-52
2021/01/30 07:51:24;;;;;;;30.08;27.30;;;35.00;46.90;;;;;;4911400;29;20246;-49
2021/01/30 07:53:56;;;;;;;28.40;25.70;;;35.00;46.90;;;;;;4911451;29;21048;-52
2021/01/30 07:56:44;;;;;;;29.08;26.35;;;35.00;46.80;;;;;;4934445;28;20232;-49
2021/01/30 07:59:35;;;;;;;28.20;25.67;;;35.10;46.70;;;;;;4924758;29;20242;-52
2021/01/30 08:02:48;;;;;;;29.02;26.27;;;35.10;47.00;;;;;;4930936;29;20238;-54
2021/01/30 08:05:32;;;;;;;25.63;23.38;;;35.10;46.90;;;;;;4859905;29;20238;-50
2021/01/30 08:08:17;;;;;;;26.27;23.90;;;35.10;46.70;;;;;;4912041;29;20243;-51
2021/01/30 08:11:02;;;;;;;28.27;25.77;;;35.10;46.90;;;;;;4912176;29;20742;-51
2021/01/30 08:13:38;;;;;;;29.77;26.80;;;35.30;46.90;;;;;;4912745;29;20285;-53
2021/01/30 08:16:33;;;;;;;25.90;23.65;;;35.30;47.10;;;;;;4950242;28;20303;-49
2021/01/30 08:19:05;;;;;;;25.40;23.08;;;35.30;47.50;;;;;;4949417;29;20284;-50
2021/01/30 08:21:41;;;;;;;27.10;24.63;;;35.30;47.40;;;;;;4949801;29;20752;-55
2021/01/30 08:24:18;;;;;;;28.23;25.58;;;35.40;47.50;;;;;;4992658;28;20265;-56
2021/01/30 08:26:54;;;;;;;26.88;24.27;;;35.40;47.20;;;;;;5009877;28;20249;-54
2021/01/30 08:29:27;;;;;;;25.02;22.70;;;35.40;47.30;;;;;;5010362;28;20330;-50
2021/01/30 08:32:00;;;;;;;28.85;25.10;;;35.40;47.50;;;;;;4968701;28;20244;-53
2021/01/30 08:34:33;;;;;;;28.63;25.83;;;35.40;47.50;;;;;;4968982;28;20658;-53
2021/01/30 08:37:36;;;;;;;27.88;25.38;;;35.40;47.30;;;;;;4967990;28;20886;-53
2021/01/30 08:40:13;;;;;;;26.27;23.67;;;35.40;47.60;;;;;;4968848;28;20625;-52
2021/01/30 08:42:57;;;;;;;27.90;25.17;;;35.40;47.50;;;;;;4968756;28;20228;-51
2021/01/30 08:45:29;;;;;;;30.58;27.77;;;35.40;47.70;;;;;;4968629;28;20232;-51
2021/01/30 08:48:22;;;;;;;30.02;27.10;;;35.40;48.40;;;;;;4968715;28;20333;-52
2021/01/30 08:50:52;;;;;;;27.27;24.65;;;35.30;48.00;;;;;;4967826;28;20244;-51
2021/01/30 08:53:31;;;;;;;28.40;25.38;;;35.30;48.30;;;;;;4968883;28;20339;-51
2021/01/30 08:56:03;;;;;;;29.27;26.45;;;35.30;48.40;;;;;;4968485;28;20296;-50
2021/01/30 08:58:52;;;;;;;29.02;26.00;;;35.30;48.40;;;;;;4968503;28;20392;-49
2021/01/30 09:01:47;;;;;;;28.35;25.65;;;35.30;48.30;;;;;;4967664;28;20232;-49
2021/01/30 09:05:00;;;;;;;27.13;24.48;;;35.20;48.90;;;;;;5023638;28;20242;-52
2021/01/30 09:07:48;;;;;;;30.60;27.60;;;35.30;49.60;;;;;;5028980;28;20681;-56
2021/01/30 09:10:43;;;;;;;32.53;29.23;;;35.30;49.70;;;;;;5028927;28;20242;-51
2021/01/30 09:13:16;;;;;;;33.00;29.83;;;35.20;49.70;;;;;;5028787;28;20235;-52
2021/01/30 09:16:04;;;;;;;32.17;29.08;;;35.20;49.40;;;;;;5028698;28;20234;-50
2021/01/30 09:18:50;;;;;;;33.83;30.50;;;35.20;49.50;;;;;;5029108;28;20313;-51
2021/01/30 09:21:28;;;;;;;29.92;27.20;;;35.10;49.30;;;;;;5027756;28;20601;-55
2021/01/30 09:24:19;;;;;;;33.95;30.67;;;35.10;49.30;;;;;;5029074;28;20234;-52
2021/01/30 09:26:53;;;;;;;36.67;33.28;;;35.00;49.00;;;;;;5029294;28;20315;-51
2021/01/30 09:29:26;;;;;;;36.05;32.30;;;35.00;48.90;;;;;;5029539;28;20577;-52
2021/01/30 09:31:57;;;;;;;29.75;26.85;;;34.90;49.10;;;;;;5029151;28;20231;-53
2021/01/30 09:34:30;;;;;;;29.50;26.90;;;34.80;49.10;;;;;;5029324;28;20237;-55
2021/01/30 09:37:01;;;;;;;29.83;27.08;;;34.70;49.10;;;;;;5029094;28;20709;-49
2021/01/30 09:39:32;;;;;;;37.67;33.95;;;34.70;49.30;;;;;;5029025;28;20234;-50
2021/01/30 09:42:15;;;;;;;31.05;28.08;;;34.70;49.30;;;;;;5028650;28;20235;-49
2021/01/30 09:44:47;;;;;;;34.53;31.40;;;34.70;49.60;;;;;;4967092;28;20232;-52
2021/01/30 09:47:22;;;;;;;39.70;34.47;;;34.70;49.70;;;;;;4967758;28;20237;-53
2021/01/30 09:49:58;;;;;;;33.05;29.90;;;34.60;49.30;;;;;;4967398;28;20247;-52
2021/01/30 09:52:29;;;;;;;32.10;29.15;;;34.60;49.10;;;;;;4967119;28;20237;-52
2021/01/30 09:55:03;;;;;;;35.55;32.15;;;34.60;49.30;;;;;;4967460;28;20241;-50
2021/01/30 09:57:35;;;;;;;36.40;32.70;;;34.60;49.30;;;;;;4967233;28;20280;-50
2021/01/30 10:00:07;;;;;;;43.70;39.10;;;34.60;49.60;;;;;;4967437;28;20663;-51
2021/01/30 10:02:38;;;;;;;39.92;35.72;;;34.60;49.60;;;;;;4967139;28;20605;-54
2021/01/30 10:05:10;;;;;;;41.33;36.47;;;34.60;49.70;;;;;;4967297;28;20280;-51
2021/01/30 10:07:41;;;;;;;34.78;31.42;;;34.60;49.80;;;;;;4967120;28;20251;-50
2021/01/30 10:10:27;;;;;;;31.60;28.77;;;34.60;49.80;;;;;;5020470;28;20242;-50
2021/01/30 10:13:00;;;;;;;34.10;30.88;;;34.70;49.70;;;;;;5027916;28;20809;-49
2021/01/30 10:15:32;;;;;;;34.17;30.85;;;34.70;49.30;;;;;;5027799;28;20242;-49
2021/01/30 10:18:04;;;;;;;34.50;30.90;;;34.70;49.20;;;;;;5028322;28;20313;-52
2021/01/30 10:20:44;;;;;;;38.22;34.65;;;34.70;49.20;;;;;;5028183;28;20226;-50
2021/01/30 10:23:14;;;;;;;35.65;32.15;;;34.70;48.80;;;;;;5027506;28;20234;-50
2021/01/30 10:25:45;;;;;;;40.00;36.03;;;34.70;49.20;;;;;;4966497;28;20577;-50
2021/01/30 10:28:17;;;;;;;39.58;35.88;;;34.70;49.30;;;;;;4965905;28;20302;-53
2021/01/30 10:30:48;;;;;;;37.92;34.22;;;34.70;49.60;;;;;;4966361;28;20319;-52
2021/01/30 10:33:18;;;;;;;48.65;43.70;;;34.80;49.90;;;;;;4966690;28;20228;-55
2021/01/30 10:35:50;;;;;;;43.00;38.58;;;34.80;49.70;;;;;;4909463;29;20243;-55
2021/01/30 10:38:21;;;;;;;39.67;35.85;;;34.90;49.70;;;;;;4909045;29;20294;-53
2021/01/30 10:40:56;;;;;;;35.67;32.20;;;35.00;49.20;;;;;;4909562;29;20242;-53
2021/01/30 10:43:30;;;;;;;33.92;30.75;;;35.00;49.10;;;;;;4909487;29;20240;-56
2021/01/30 10:46:01;;;;;;;34.15;30.90;;;35.00;49.00;;;;;;4909339;29;20244;-53
2021/01/30 10:48:33;;;;;;;31.63;28.52;;;35.00;48.90;;;;;;4909612;29;20268;-52
2021/01/30 10:51:05;;;;;;;31.02;27.98;;;35.00;49.00;;;;;;4901905;29;20707;-54
2021/01/30 10:53:36;;;;;;;31.05;28.25;;;35.00;49.10;;;;;;4908976;29;20230;-52
2021/01/30 10:56:15;;;;;;;31.30;28.30;;;35.00;49.20;;;;;;4922350;28;20283;-50
2021/01/30 10:58:46;;;;;;;32.70;29.20;;;35.00;49.10;;;;;;4966582;28;20240;-49
2021/01/30 11:01:29;;;;;;;34.92;31.55;;;34.90;49.00;;;;;;5023177;28;20234;-49
2021/01/30 11:04:00;;;;;;;34.30;31.08;;;34.90;49.00;;;;;;5030675;28;20241;-52
2021/01/30 11:06:32;;;;;;;34.38;31.13;;;34.80;48.90;;;;;;4970358;28;20279;-51
2021/01/30 11:09:11;;;;;;;33.92;30.80;;;34.80;49.10;;;;;;4960661;28;20280;-49
2021/01/30 11:11:42;;;;;;;38.35;34.25;;;34.70;49.20;;;;;;4965095;28;20233;-52
2021/01/30 11:14:16;;;;;;;44.38;39.60;;;34.60;49.60;;;;;;4970627;28;20240;-52
2021/01/30 11:16:47;;;;;;;41.00;36.75;;;34.50;51.30;;;;;;4970462;28;20228;-52
2021/01/30 11:19:21;;;;;;;37.08;33.47;;;34.40;52.10;;;;;;4970467;28;20283;-51
2021/01/30 11:21:53;;;;;;;42.65;38.03;;;34.30;53.40;;;;;;4969467;28;20268;-50
2021/01/30 11:24:28;;;;;;;39.33;35.08;;;34.20;53.80;;;;;;4969056;28;20232;-51
2021/01/30 11:26:58;;;;;;;41.42;37.05;;;34.10;54.40;;;;;;4912585;29;20240;-49
2021/01/30 11:29:36;;;;;;;40.33;35.80;;;34.00;54.60;;;;;;4912527;29;20238;-51
2021/01/30 11:32:08;;;;;;;45.75;37.00;;;33.90;55.10;;;;;;4912454;29;20302;-51
2021/01/30 11:34:39;;;;;;;42.85;36.30;;;33.80;55.20;;;;;;4912675;29;20239;-50
2021/01/30 11:37:10;;;;;;;39.92;35.83;;;33.70;55.50;;;;;;4932343;28;20395;-49
2021/01/30 11:39:41;;;;;;;40.67;36.30;;;33.60;55.70;;;;;;4931240;29;20238;-52
2021/01/30 11:42:12;;;;;;;38.92;33.75;;;33.50;56.10;;;;;;4949610;29;20320;-50
2021/01/30 11:44:44;;;;;;;40.22;35.88;;;33.40;56.30;;;;;;4950207;29;20245;-53
2021/01/30 11:47:14;;;;;;;38.55;33.95;;;33.30;56.60;;;;;;4949784;29;20316;-54
2021/01/30 11:49:46;;;;;;;36.58;32.70;;;33.30;56.90;;;;;;4949961;29;20327;-52
2021/01/30 11:52:18;;;;;;;35.33;31.95;;;33.20;57.10;;;;;;4950502;29;20332;-49
2021/01/30 11:54:48;;;;;;;36.63;33.05;;;33.10;57.40;;;;;;4950316;29;20233;-52
2021/01/30 11:57:19;;;;;;;37.00;33.28;;;33.00;57.50;;;;;;4963409;28;20262;-54
2021/01/30 11:59:51;;;;;;;36.75;33.20;;;32.90;57.70;;;;;;5008234;28;20281;-51
2021/01/30 12:02:28;;;;;;;38.05;34.30;;;32.90;58.00;;;;;;5007919;28;20314;-49
2021/01/30 12:04:58;;;;;;;37.70;33.85;;;32.80;58.20;;;;;;5021558;28;20268;-51
2021/01/30 12:07:29;;;;;;;35.22;31.70;;;32.80;58.20;;;;;;5030682;28;20646;-50
2021/01/30 12:10:00;;;;;;;33.53;30.10;;;32.70;58.40;;;;;;5030760;28;20235;-49
2021/01/30 12:12:30;;;;;;;32.95;29.75;;;32.60;58.50;;;;;;5030499;28;20314;-52
2021/01/30 12:15:02;;;;;;;32.90;29.73;;;32.50;58.60;;;;;;5030323;28;20292;-54
2021/01/30 12:17:35;;;;;;;32.47;29.35;;;32.40;58.90;;;;;;5030644;28;20807;-51
2021/01/30 12:20:06;;;;;;;30.40;27.50;;;32.40;59.00;;;;;;5030315;28;20269;-51
2021/01/30 12:22:39;;;;;;;30.65;27.48;;;32.40;59.00;;;;;;5030254;28;20394;-49
2021/01/30 12:25:10;;;;;;;29.67;26.77;;;32.30;59.00;;;;;;5030287;28;20268;-52
2021/01/30 12:27:41;;;;;;;31.48;28.50;;;32.30;59.30;;;;;;5029912;28;20230;-55
2021/01/30 12:30:14;;;;;;;30.98;28.08;;;32.20;59.30;;;;;;5030176;28;20723;-55
2021/01/30 12:32:45;;;;;;;30.67;27.50;;;32.20;59.50;;;;;;5030031;28;20269;-53
2021/01/30 12:35:16;;;;;;;29.13;26.33;;;32.10;59.40;;;;;;5030160;28;20653;-54
2021/01/30 12:37:46;;;;;;;28.40;25.77;;;32.10;59.50;;;;;;5029956;28;21015;-56
2021/01/30 12:40:17;;;;;;;28.13;25.40;;;32.00;59.40;;;;;;4968004;28;20275;-51
2021/01/30 12:42:48;;;;;;;27.40;24.50;;;32.00;59.50;;;;;;4968720;28;20252;-53
2021/01/30 12:45:20;;;;;;;29.00;25.80;;;31.90;59.40;;;;;;4968645;28;20264;-50
2021/01/30 12:47:50;;;;;;;42.80;35.70;;;31.90;59.40;;;;;;4968535;28;20248;-50
2021/01/30 12:50:25;;;;;;;55.67;41.88;;;31.90;59.50;;;;;;4968363;28;20240;-50
2021/01/30 12:52:57;;;;;;;62.17;48.95;;;31.90;59.60;;;;;;4968327;28;20380;-51
2021/01/30 12:55:27;;;;;;;85.30;66.82;;;31.80;59.40;;;;;;4968534;28;20933;-49
2021/01/30 12:57:59;;;;;;;101.43;73.60;;;31.80;59.40;;;;;;4968122;28;20237;-49
2021/01/30 13:00:31;;;;;;;65.72;53.08;;;31.70;59.40;;;;;;4958209;28;20249;-49
2021/01/30 13:03:03;;;;;;;51.10;39.05;;;31.70;59.40;;;;;;4951835;28;20283;-52
2021/01/30 13:05:34;;;;;;;36.80;29.98;;;31.70;59.30;;;;;;5008726;28;20744;-52